createdAt,value
2023-03-28T00:01:10.382Z,2.85
2023-03-28T00:03:40.660Z,2.53
2023-03-28T00:06:11.586Z,2.55
2023-03-28T00:08:41.118Z,2.60
2023-03-28T00:11:11.486Z,3.50
2023-03-28T00:13:40.049Z,2.90
2023-03-28T00:16:12.670Z,2.40
2023-03-28T00:18:42.804Z,3.38
2023-03-28T00:21:23.777Z,2.20
2023-03-28T00:23:53.703Z,3.05
2023-03-28T00:26:24.955Z,3.25
2023-03-28T00:28:54.693Z,3.55
2023-03-28T00:31:24.822Z,4.28
2023-03-28T00:33:53.397Z,3.80
2023-03-28T00:36:23.454Z,4.28
2023-03-28T00:38:52.475Z,4.78
2023-03-28T00:41:21.959Z,4.90
2023-03-28T00:43:52.233Z,4.57
2023-03-28T00:46:27.416Z,5.93
2023-03-28T00:48:59.341Z,5.53
2023-03-28T00:51:30.794Z,5.28
2023-03-28T00:54:03.252Z,5.97
2023-03-28T00:56:35.818Z,8.07
2023-03-28T00:59:09.114Z,6.22
2023-03-28T01:01:39.064Z,5.43
2023-03-28T01:04:10.435Z,6.57
2023-03-28T01:06:42.792Z,8.35
2023-03-28T01:09:16.741Z,5.55
2023-03-28T01:11:50.765Z,6.18
2023-03-28T01:14:21.979Z,7.07
2023-03-28T01:16:56.715Z,6.00
2023-03-28T01:19:36.990Z,7.15
2023-03-28T01:22:33.687Z,5.00
2023-03-28T01:25:40.488Z,5.88
2023-03-28T01:28:22.722Z,6.10
2023-03-28T01:31:19.231Z,5.00
2023-03-28T01:34:31.513Z,6.32
2023-03-28T01:37:22.317Z,5.32
2023-03-28T01:40:12.254Z,6.82
2023-03-28T01:42:56.120Z,6.47
2023-03-28T01:45:34.140Z,7.00
2023-03-28T01:48:07.784Z,5.90
2023-03-28T01:50:43.542Z,5.60
2023-03-28T01:53:22.164Z,7.07
2023-03-28T01:55:56.281Z,7.45
2023-03-28T01:58:31.555Z,6.07
2023-03-28T02:01:10.530Z,7.80
2023-03-28T02:03:43.312Z,6.55
2023-03-28T02:06:34.798Z,6.38
2023-03-28T02:09:08.825Z,6.78
2023-03-28T02:12:04.365Z,6.47
2023-03-28T02:15:07.945Z,6.05
2023-03-28T02:18:00.672Z,6.07
2023-03-28T02:20:56.432Z,6.28
2023-03-28T02:23:48.311Z,6.57
2023-03-28T02:26:37.256Z,6.10
2023-03-28T02:29:19.694Z,6.82
2023-03-28T02:31:57.226Z,7.55
2023-03-28T02:34:26.568Z,7.88
2023-03-28T02:37:03.126Z,7.10
2023-03-28T02:39:49.876Z,7.82
2023-03-28T02:42:41.568Z,7.20
2023-03-28T02:45:40.421Z,7.30
2023-03-28T02:48:21.254Z,6.43
2023-03-28T02:51:01.632Z,5.05
2023-03-28T02:53:36.651Z,5.65
2023-03-28T02:56:11.934Z,5.10
2023-03-28T02:59:17.191Z,5.15
2023-03-28T03:01:46.561Z,5.03
2023-03-28T03:04:17.255Z,4.80
2023-03-28T03:06:48.503Z,5.30
2023-03-28T03:09:18.833Z,4.70
2023-03-28T03:11:47.531Z,5.13
2023-03-28T03:14:17.317Z,4.25
2023-03-28T03:16:48.912Z,4.63
2023-03-28T03:19:19.595Z,5.15
2023-03-28T03:21:49.950Z,4.40
2023-03-28T03:24:18.520Z,5.20
2023-03-28T03:26:47.030Z,4.57
2023-03-28T03:29:19.312Z,3.00
2023-03-28T03:31:47.603Z,4.55
2023-03-28T03:34:26.308Z,3.50
2023-03-28T03:36:58.214Z,3.10
2023-03-28T03:39:26.587Z,3.08
2023-03-28T03:41:54.977Z,3.95
2023-03-28T03:44:24.660Z,3.80
2023-03-28T03:46:53.698Z,4.20
2023-03-28T03:49:22.010Z,3.38
2023-03-28T03:51:50.742Z,4.80
2023-03-28T03:54:19.577Z,4.93
2023-03-28T03:56:48.649Z,3.90
2023-03-28T03:59:17.872Z,3.70
2023-03-28T04:01:49.115Z,3.92
2023-03-28T04:04:37.042Z,4.15
2023-03-28T04:07:16.272Z,4.40
2023-03-28T04:09:46.685Z,4.50
2023-03-28T04:12:15.599Z,4.03
2023-03-28T04:14:52.408Z,3.65
2023-03-28T04:17:41.312Z,3.72
2023-03-28T04:20:15.045Z,4.60
2023-03-28T04:23:01.696Z,3.67
2023-03-28T04:25:32.376Z,5.22
2023-03-28T04:28:11.757Z,3.58
2023-03-28T04:30:49.407Z,4.15
2023-03-28T04:33:33.868Z,4.18
2023-03-28T04:36:04.273Z,4.90
2023-03-28T04:38:36.411Z,4.55
2023-03-28T04:41:34.320Z,4.35
2023-03-28T04:44:23.187Z,4.70
2023-03-28T04:46:59.834Z,5.85
2023-03-28T04:49:29.616Z,6.88
2023-03-28T04:51:58.069Z,6.25
2023-03-28T04:54:27.119Z,7.10
2023-03-28T04:57:05.898Z,8.20
2023-03-28T04:59:42.383Z,8.80
2023-03-28T05:02:12.278Z,8.68
2023-03-28T05:04:46.375Z,8.38
2023-03-28T05:07:16.038Z,9.10
2023-03-28T05:09:44.647Z,7.90
2023-03-28T05:12:13.116Z,8.90
2023-03-28T05:15:08.434Z,10.93
2023-03-28T05:17:58.707Z,9.30
2023-03-28T05:20:38.273Z,8.90
2023-03-28T05:23:07.388Z,8.93
2023-03-28T05:25:38.803Z,10.45
2023-03-28T05:28:07.556Z,9.02
2023-03-28T05:30:41.394Z,9.70
2023-03-28T05:33:09.677Z,8.82
2023-03-28T05:35:40.596Z,8.02
2023-03-28T05:38:09.131Z,9.60
2023-03-28T05:40:37.934Z,8.65
2023-03-28T05:43:06.727Z,10.02
2023-03-28T05:45:35.822Z,8.52
2023-03-28T05:48:16.541Z,9.27
2023-03-28T05:50:48.587Z,8.52
2023-03-28T05:53:17.789Z,9.88
2023-03-28T05:55:46.178Z,9.52
2023-03-28T05:58:14.485Z,9.50
2023-03-28T06:00:44.708Z,8.88
2023-03-28T06:03:16.725Z,9.00
2023-03-28T06:05:48.263Z,9.52
2023-03-28T06:08:22.569Z,8.65
2023-03-28T06:10:51.236Z,9.48
2023-03-28T06:13:27.642Z,10.10
2023-03-28T06:15:56.415Z,9.80
2023-03-28T06:18:32.462Z,8.65
2023-03-28T06:21:02.509Z,9.00
2023-03-28T06:23:31.144Z,8.07
2023-03-28T06:26:00.212Z,8.85
2023-03-28T06:28:34.760Z,9.23
2023-03-28T06:31:23.281Z,8.80
2023-03-28T06:33:51.649Z,8.52
2023-03-28T06:36:23.364Z,8.80
2023-03-28T06:38:53.537Z,8.40
2023-03-28T06:41:23.562Z,8.35
2023-03-28T06:43:51.989Z,9.85
2023-03-28T06:46:39.141Z,8.85
2023-03-28T06:49:08.012Z,8.80
2023-03-28T06:52:12.899Z,8.88
2023-03-28T06:54:43.369Z,9.02
2023-03-28T06:57:11.706Z,9.52
2023-03-28T06:59:40.500Z,9.77
2023-03-28T07:02:13.233Z,9.20
2023-03-28T07:04:42.683Z,9.60
2023-03-28T07:07:12.307Z,9.55
2023-03-28T07:09:40.749Z,7.60
2023-03-28T07:12:12.010Z,8.00
2023-03-28T07:14:44.548Z,8.98
2023-03-28T07:17:13.021Z,8.45
2023-03-28T07:19:41.399Z,9.70
2023-03-28T07:22:09.661Z,8.10
2023-03-28T07:24:39.691Z,8.27
2023-03-28T07:27:15.429Z,8.85
2023-03-28T07:29:46.288Z,9.77
2023-03-28T07:32:15.021Z,9.00
2023-03-28T07:34:46.304Z,8.23
2023-03-28T07:37:20.672Z,9.02
2023-03-28T07:39:57.571Z,8.50
2023-03-28T07:42:28.181Z,8.10
2023-03-28T07:44:56.607Z,10.20
2023-03-28T07:47:24.881Z,7.90
2023-03-28T07:49:53.214Z,7.65
2023-03-28T07:52:21.845Z,9.25
2023-03-28T07:54:50.176Z,8.60
2023-03-28T07:57:20.149Z,7.53
2023-03-28T08:00:17.437Z,7.22
2023-03-28T08:03:01.698Z,7.93
2023-03-28T08:05:34.169Z,6.95
2023-03-28T08:08:03.688Z,9.13
2023-03-28T08:10:32.207Z,9.15
2023-03-28T08:13:02.361Z,6.97
2023-03-28T08:15:30.686Z,8.02
2023-03-28T08:17:59.134Z,7.38
2023-03-28T08:20:27.474Z,7.45
2023-03-28T08:23:12.743Z,8.65
2023-03-28T08:26:05.034Z,8.27
2023-03-28T08:28:35.933Z,7.93
2023-03-28T08:31:10.119Z,8.57
2023-03-28T08:33:38.848Z,9.40
2023-03-28T08:36:09.173Z,8.15
2023-03-28T08:38:37.799Z,7.35
2023-03-28T08:41:14.970Z,6.88
2023-03-28T08:44:14.818Z,6.60
2023-03-28T08:46:45.986Z,6.90
2023-03-28T08:49:17.960Z,7.10
2023-03-28T08:51:50.096Z,8.85
2023-03-28T08:54:23.601Z,7.88
2023-03-28T08:56:55.644Z,8.98
2023-03-28T08:59:33.689Z,8.13
2023-03-28T09:02:02.371Z,7.40
2023-03-28T09:04:35.531Z,8.10
2023-03-28T09:07:27.268Z,6.95
2023-03-28T09:10:07.939Z,8.05
2023-03-28T09:12:58.868Z,7.03
2023-03-28T09:15:43.614Z,7.38
2023-03-28T09:18:34.438Z,8.15
2023-03-28T09:21:10.869Z,8.35
2023-03-28T09:24:08.621Z,7.40
2023-03-28T09:26:40.349Z,6.80
2023-03-28T09:29:16.409Z,8.18
2023-03-28T09:31:49.114Z,8.15
2023-03-28T09:34:23.119Z,8.27
2023-03-28T09:36:56.418Z,8.75
2023-03-28T09:39:34.092Z,8.10
2023-03-28T09:42:07.899Z,7.55
2023-03-28T09:44:59.113Z,8.52
2023-03-28T09:47:49.644Z,8.30
2023-03-28T09:50:22.066Z,9.30
2023-03-28T09:52:58.891Z,8.55
2023-03-28T09:55:29.736Z,8.35
2023-03-28T09:58:03.154Z,7.75
2023-03-28T10:00:36.485Z,8.07
2023-03-28T10:03:32.818Z,7.70
2023-03-28T10:06:20.378Z,6.70
2023-03-28T10:08:49.862Z,6.95
2023-03-28T10:11:27.500Z,7.82
2023-03-28T10:13:57.281Z,7.70
2023-03-28T10:16:29.552Z,6.95
2023-03-28T10:19:14.742Z,7.15
2023-03-28T10:21:53.977Z,6.97
2023-03-28T10:24:26.416Z,6.32
2023-03-28T10:26:59.932Z,7.00
2023-03-28T10:29:28.500Z,6.25
2023-03-28T10:31:56.805Z,7.35
2023-03-28T10:34:42.779Z,6.25
2023-03-28T10:37:25.368Z,10.30
2023-03-28T10:40:30.157Z,6.65
2023-03-28T10:43:39.357Z,5.10
2023-03-28T10:46:17.623Z,6.50
2023-03-28T10:49:20.484Z,6.55
2023-03-28T10:51:59.247Z,6.78
2023-03-28T10:54:49.561Z,6.97
2023-03-28T10:57:36.056Z,8.18
2023-03-28T11:00:13.202Z,6.57
2023-03-28T11:03:12.010Z,7.35
2023-03-28T11:06:08.036Z,6.40
2023-03-28T11:08:49.193Z,6.95
2023-03-28T11:11:37.296Z,6.93
2023-03-28T11:14:19.680Z,6.28
2023-03-28T11:16:57.517Z,6.05
2023-03-28T11:20:17.770Z,6.35
2023-03-28T11:23:06.832Z,5.93
2023-03-28T11:25:56.757Z,5.55
2023-03-28T11:29:18.458Z,6.00
2023-03-28T11:31:56.864Z,5.90
2023-03-28T11:34:31.447Z,5.72
2023-03-28T11:37:07.502Z,6.47
2023-03-28T11:39:43.154Z,4.95
2023-03-28T11:42:24.286Z,6.72
2023-03-28T11:45:02.695Z,5.90
2023-03-28T11:47:35.525Z,7.00
2023-03-28T11:50:16.472Z,6.10
2023-03-28T11:53:00.718Z,6.43
2023-03-28T11:55:37.759Z,5.90
2023-03-28T11:58:20.690Z,5.97
2023-03-28T12:00:58.840Z,5.90
2023-03-28T12:03:36.202Z,5.57
2023-03-28T12:06:11.077Z,5.47
2023-03-28T12:08:47.334Z,5.90
2023-03-28T12:11:22.532Z,5.80
2023-03-28T12:14:12.261Z,5.53
2023-03-28T12:16:50.648Z,5.47
2023-03-28T12:19:30.604Z,5.90
2023-03-28T12:22:10.346Z,6.05
2023-03-28T12:24:48.809Z,5.65
2023-03-28T12:27:40.461Z,6.28
2023-03-28T12:30:23.001Z,5.93
2023-03-28T12:33:03.617Z,6.00
2023-03-28T12:35:42.955Z,8.07
2023-03-28T12:38:31.798Z,5.20
2023-03-28T12:41:17.947Z,4.20
2023-03-28T12:43:52.163Z,5.22
2023-03-28T12:46:33.547Z,5.40
2023-03-28T12:49:06.762Z,4.68
2023-03-28T12:51:39.634Z,4.88
2023-03-28T12:54:24.485Z,5.28
2023-03-28T12:57:05.286Z,8.90
2023-03-28T12:59:49.282Z,5.55
2023-03-28T13:02:45.289Z,5.07
2023-03-28T13:05:22.001Z,7.68
2023-03-28T13:08:02.091Z,4.65
2023-03-28T13:10:38.764Z,5.25
2023-03-28T13:13:18.101Z,5.13
2023-03-28T13:16:03.024Z,5.88
2023-03-28T13:18:34.558Z,5.03
2023-03-28T13:21:05.736Z,4.40
2023-03-28T13:23:38.318Z,4.30
2023-03-28T13:26:08.242Z,5.05
2023-03-28T13:28:44.312Z,7.40
2023-03-28T13:31:21.054Z,4.53
2023-03-28T13:33:54.617Z,5.70
2023-03-28T13:36:29.513Z,4.85
2023-03-28T13:39:21.416Z,4.72
2023-03-28T13:42:01.448Z,5.88
2023-03-28T13:44:37.533Z,5.10
2023-03-28T13:47:06.892Z,4.75
2023-03-28T13:49:44.790Z,4.32
2023-03-28T13:52:17.254Z,4.80
2023-03-28T13:54:54.004Z,4.60
2023-03-28T13:57:25.969Z,4.35
2023-03-28T13:59:56.935Z,3.92
2023-03-28T14:02:36.263Z,5.10
2023-03-28T14:05:21.169Z,4.13
2023-03-28T14:07:50.491Z,4.20
2023-03-28T14:10:30.952Z,4.07
2023-03-28T14:13:02.782Z,3.90
2023-03-28T14:15:36.410Z,4.10
2023-03-28T14:18:05.215Z,6.93
2023-03-28T14:20:36.210Z,4.10
2023-03-28T14:23:06.483Z,4.57
2023-03-28T14:25:34.856Z,3.30
2023-03-28T14:28:09.593Z,3.75
2023-03-28T14:30:42.780Z,4.07
2023-03-28T14:33:21.439Z,3.60
2023-03-28T14:36:02.943Z,3.70
2023-03-28T14:38:33.439Z,4.43
2023-03-28T14:41:14.363Z,5.63
2023-03-28T14:43:42.849Z,3.60
2023-03-28T14:46:12.187Z,4.00
2023-03-28T14:48:43.030Z,4.95
2023-03-28T14:51:14.999Z,4.05
2023-03-28T14:53:46.026Z,3.80
2023-03-28T14:56:19.413Z,3.75
2023-03-28T14:58:50.040Z,6.65
2023-03-28T15:01:22.936Z,3.90
2023-03-28T15:03:57.839Z,3.92
2023-03-28T15:06:29.499Z,3.70
2023-03-28T15:08:59.729Z,3.70
2023-03-28T15:11:32.739Z,3.78
2023-03-28T15:14:05.122Z,5.25
2023-03-28T15:16:37.573Z,6.22
2023-03-28T15:19:09.386Z,4.30
2023-03-28T15:21:42.507Z,3.25
2023-03-28T15:24:13.725Z,4.50
2023-03-28T15:26:45.061Z,3.75
2023-03-28T15:29:18.961Z,3.85
2023-03-28T15:31:47.995Z,4.80
2023-03-28T15:34:21.792Z,4.03
2023-03-28T15:36:54.251Z,4.38
2023-03-28T15:39:25.564Z,6.72
2023-03-28T15:41:56.176Z,4.53
2023-03-28T15:44:28.852Z,4.60
2023-03-28T15:47:00.798Z,4.40
2023-03-28T15:49:30.255Z,4.20
2023-03-28T15:52:03.390Z,3.75
2023-03-28T15:54:34.833Z,4.55
2023-03-28T15:57:04.128Z,3.63
2023-03-28T15:59:39.345Z,8.48
2023-03-28T16:02:32.069Z,3.83
2023-03-28T16:05:05.030Z,3.53
2023-03-28T16:07:37.092Z,3.80
2023-03-28T16:10:06.514Z,3.95
2023-03-28T16:12:45.678Z,7.70
2023-03-28T16:15:32.779Z,3.28
2023-03-28T16:18:12.548Z,4.15
2023-03-28T16:20:49.749Z,6.30
2023-03-28T16:23:19.306Z,3.97
2023-03-28T16:25:47.932Z,5.65
2023-03-28T16:28:19.207Z,4.22
2023-03-28T16:30:47.778Z,4.07
2023-03-28T16:33:17.059Z,4.28
2023-03-28T16:35:45.415Z,5.43
2023-03-28T16:38:13.814Z,4.15
2023-03-28T16:40:45.408Z,3.92
2023-03-28T16:43:15.470Z,3.95
2023-03-28T16:45:46.923Z,4.22
2023-03-28T16:48:15.413Z,4.07
2023-03-28T16:50:50.612Z,3.47
2023-03-28T16:53:18.812Z,3.92
2023-03-28T16:55:49.157Z,3.97
2023-03-28T16:58:17.414Z,3.58
2023-03-28T17:00:47.989Z,3.42
2023-03-28T17:03:17.128Z,3.70
2023-03-28T17:05:45.534Z,3.50
2023-03-28T17:08:13.799Z,4.20
2023-03-28T17:10:43.360Z,4.50
2023-03-28T17:13:12.958Z,4.35
2023-03-28T17:15:42.238Z,4.35
2023-03-28T17:18:11.042Z,3.53
2023-03-28T17:20:39.370Z,5.82
2023-03-28T17:23:07.647Z,3.50
2023-03-28T17:25:48.291Z,3.97
2023-03-28T17:28:23.959Z,4.03
2023-03-28T17:30:52.733Z,6.68
2023-03-28T17:33:21.647Z,3.67
2023-03-28T17:35:50.202Z,3.50
2023-03-28T17:38:18.701Z,3.38
2023-03-28T17:40:47.790Z,5.75
2023-03-28T17:43:16.108Z,2.83
2023-03-28T17:45:45.855Z,3.13
2023-03-28T17:48:14.098Z,4.22
2023-03-28T17:50:42.356Z,3.53
2023-03-28T17:53:10.920Z,3.40
2023-03-28T17:55:39.289Z,4.05
2023-03-28T17:58:08.021Z,4.30
2023-03-28T18:00:36.759Z,3.17
2023-03-28T18:03:06.569Z,3.15
2023-03-28T18:05:50.606Z,2.70
2023-03-28T18:08:18.898Z,2.92
2023-03-28T18:10:47.835Z,4.30
2023-03-28T18:13:17.316Z,3.35
2023-03-28T18:15:46.196Z,2.70
2023-03-28T18:18:17.476Z,2.53
2023-03-28T18:20:46.199Z,2.45
2023-03-28T18:23:14.445Z,3.60
2023-03-28T18:25:42.672Z,2.50
2023-03-28T18:28:11.344Z,2.80
2023-03-28T18:30:40.622Z,2.65
2023-03-28T18:33:11.706Z,2.10
2023-03-28T18:35:41.335Z,6.00
2023-03-28T18:38:09.814Z,2.92
2023-03-28T18:40:38.157Z,4.07
2023-03-28T18:43:06.892Z,2.80
2023-03-28T18:45:36.403Z,3.15
2023-03-28T18:48:06.087Z,2.78
2023-03-28T18:50:34.553Z,2.92
2023-03-28T18:53:04.957Z,2.70
2023-03-28T18:55:33.684Z,2.50
2023-03-28T18:58:04.603Z,3.80
2023-03-28T19:00:32.903Z,2.47
2023-03-28T19:03:02.156Z,5.25
2023-03-28T19:05:31.476Z,2.38
2023-03-28T19:07:59.797Z,2.25
2023-03-28T19:10:29.362Z,2.63
2023-03-28T19:12:57.667Z,2.97
2023-03-28T19:15:26.162Z,1.75
2023-03-28T19:17:54.494Z,2.50
2023-03-28T19:20:22.923Z,2.28
2023-03-28T19:22:51.218Z,3.30
2023-03-28T19:25:20.607Z,2.28
2023-03-28T19:27:52.150Z,3.25
2023-03-28T19:30:20.712Z,2.47
2023-03-28T19:32:48.994Z,2.25
2023-03-28T19:35:17.446Z,2.47
2023-03-28T19:37:45.703Z,2.40
2023-03-28T19:40:16.577Z,2.35
2023-03-28T19:42:45.083Z,2.25
2023-03-28T19:45:14.663Z,2.15
2023-03-28T19:47:42.946Z,1.92
2023-03-28T19:50:11.932Z,2.20
2023-03-28T19:52:42.625Z,3.50
2023-03-28T19:55:11.725Z,1.70
2023-03-28T19:57:40.077Z,2.60
2023-03-28T20:00:12.242Z,1.80
2023-03-28T20:02:45.100Z,2.67
2023-03-28T20:05:13.344Z,6.00
2023-03-28T20:07:41.756Z,1.90
2023-03-28T20:10:10.807Z,7.40
2023-03-28T20:12:41.064Z,2.38
2023-03-28T20:15:10.686Z,2.03
2023-03-28T20:17:38.882Z,2.60
2023-03-28T20:20:10.537Z,3.28
2023-03-28T20:22:38.745Z,2.20
2023-03-28T20:25:08.233Z,2.90
2023-03-28T20:27:37.545Z,2.75
2023-03-28T20:30:06.895Z,2.90
2023-03-28T20:32:35.435Z,4.45
2023-03-28T20:35:03.762Z,2.30
2023-03-28T20:37:34.646Z,6.35
2023-03-28T20:40:10.801Z,2.22
2023-03-28T20:42:40.874Z,3.22
2023-03-28T20:45:13.933Z,2.63
2023-03-28T20:47:43.025Z,2.72
2023-03-28T20:50:12.411Z,4.07
2023-03-28T20:52:42.315Z,8.80
2023-03-28T20:55:10.798Z,2.92
2023-03-28T20:57:41.796Z,2.70
2023-03-28T21:00:13.935Z,2.95
2023-03-28T21:02:43.030Z,7.45
2023-03-28T21:05:12.585Z,3.10
2023-03-28T21:07:44.046Z,3.10
2023-03-28T21:10:12.644Z,2.80
2023-03-28T21:12:41.411Z,9.13
2023-03-28T21:15:11.357Z,5.50
2023-03-28T21:17:39.965Z,4.20
2023-03-28T21:20:11.248Z,3.55
2023-03-28T21:22:39.561Z,3.90
2023-03-28T21:25:10.692Z,5.03
2023-03-28T21:27:39.028Z,4.05
2023-03-28T21:30:09.502Z,3.50
2023-03-28T21:32:37.888Z,4.57
2023-03-28T21:35:07.035Z,4.15
2023-03-28T21:37:35.713Z,3.80
2023-03-28T21:40:06.884Z,4.13
2023-03-28T21:42:36.536Z,3.15
2023-03-28T21:45:06.047Z,5.35
2023-03-28T21:47:34.347Z,4.10
2023-03-28T21:50:03.040Z,4.97
2023-03-28T21:52:31.548Z,5.60
2023-03-28T21:55:00.100Z,5.22
2023-03-28T21:57:28.472Z,4.47
2023-03-28T21:59:58.091Z,5.00
2023-03-28T22:02:26.414Z,4.82
2023-03-28T22:04:54.632Z,5.97
2023-03-28T22:07:22.874Z,7.63
2023-03-28T22:09:51.170Z,6.18
2023-03-28T22:12:22.809Z,6.10
2023-03-28T22:14:51.055Z,5.80
2023-03-28T22:17:21.685Z,5.78
2023-03-28T22:19:50.028Z,5.15
2023-03-28T22:22:18.915Z,4.72
2023-03-28T22:24:47.178Z,5.93
2023-03-28T22:27:15.471Z,7.68
2023-03-28T22:29:43.648Z,4.63
2023-03-28T22:32:11.907Z,6.05
2023-03-28T22:34:42.168Z,5.60
2023-03-28T22:37:10.450Z,4.80
2023-03-28T22:39:40.280Z,5.50
2023-03-28T22:42:08.657Z,5.45
2023-03-28T22:44:37.041Z,5.05
2023-03-28T22:47:05.366Z,5.40
2023-03-28T22:49:34.174Z,4.80
2023-03-28T22:52:04.921Z,4.68
2023-03-28T22:54:34.622Z,6.20
2023-03-28T22:57:04.316Z,8.05
2023-03-28T22:59:33.683Z,6.55
2023-03-28T23:02:02.307Z,6.07
2023-03-28T23:04:33.136Z,6.00
2023-03-28T23:07:01.465Z,9.48
2023-03-28T23:09:31.397Z,6.13
2023-03-28T23:11:59.667Z,6.10
2023-03-28T23:14:28.504Z,6.75
2023-03-28T23:16:58.198Z,5.97
2023-03-28T23:19:26.607Z,6.10
2023-03-28T23:21:55.290Z,5.80
2023-03-28T23:24:23.938Z,7.80
2023-03-28T23:26:53.523Z,6.70
2023-03-28T23:29:22.073Z,7.10
2023-03-28T23:31:50.476Z,7.63
2023-03-28T23:34:18.864Z,5.90
2023-03-28T23:36:47.266Z,6.03
2023-03-28T23:39:15.528Z,6.85
2023-03-28T23:41:43.768Z,6.32
2023-03-28T23:44:13.827Z,6.75
2023-03-28T23:46:42.230Z,6.95
2023-03-28T23:49:11.169Z,7.28
2023-03-28T23:51:39.525Z,6.97
2023-03-28T23:54:07.794Z,6.38
2023-03-28T23:56:36.167Z,6.35
2023-03-28T23:59:04.406Z,6.22
